createdAt,value
2018-08-04T00:00:30.997Z,24.20
2018-08-04T00:02:59.781Z,24.20
2018-08-04T00:05:28.565Z,24.30
2018-08-04T00:07:57.358Z,24.40
2018-08-04T00:10:26.150Z,24.30
2018-08-04T00:12:54.941Z,24.30
2018-08-04T00:15:23.734Z,24.20
2018-08-04T00:17:52.528Z,24.20
2018-08-04T00:20:21.323Z,24.20
2018-08-04T00:22:50.342Z,24.20
2018-08-04T00:25:19.151Z,24.30
2018-08-04T00:27:47.938Z,24.30
2018-08-04T00:30:16.741Z,24.20
2018-08-04T00:32:45.538Z,24.30
2018-08-04T00:35:14.330Z,24.30
2018-08-04T00:37:43.123Z,24.30
2018-08-04T00:40:12.769Z,24.20
2018-08-04T00:42:42.046Z,24.20
2018-08-04T00:45:10.834Z,24.20
2018-08-04T00:47:39.623Z,24.20
2018-08-04T00:50:09.502Z,24.20
2018-08-04T00:52:38.313Z,24.10
2018-08-04T00:55:07.350Z,24.10
2018-08-04T00:57:36.134Z,24.10
2018-08-04T01:00:05.382Z,24.00
2018-08-04T01:02:34.173Z,24.10
2018-08-04T01:05:02.965Z,24.10
2018-08-04T01:07:31.762Z,24.00
2018-08-04T01:10:00.777Z,24.00
2018-08-04T01:12:29.570Z,23.90
2018-08-04T01:14:58.694Z,23.90
2018-08-04T01:17:27.482Z,23.80
2018-08-04T01:20:00.649Z,23.80
2018-08-04T01:22:29.494Z,23.80
2018-08-04T01:24:58.424Z,23.70
2018-08-04T01:27:27.230Z,23.70
2018-08-04T01:29:55.999Z,23.60
2018-08-04T01:32:24.802Z,23.50
2018-08-04T01:34:53.663Z,23.50
2018-08-04T01:37:22.466Z,23.40
2018-08-04T01:39:51.274Z,23.40
2018-08-04T01:42:20.099Z,23.30
2018-08-04T01:44:48.877Z,23.20
2018-08-04T01:47:17.763Z,23.10
2018-08-04T01:49:46.562Z,23.10
2018-08-04T01:52:15.366Z,23.10
2018-08-04T01:54:44.164Z,23.00
2018-08-04T01:57:12.955Z,23.00
2018-08-04T01:59:41.740Z,23.00
2018-08-04T02:02:10.569Z,23.00
2018-08-04T02:04:39.358Z,23.00
2018-08-04T02:07:08.207Z,23.00
2018-08-04T02:09:36.957Z,23.00
2018-08-04T02:12:05.768Z,23.00
2018-08-04T02:14:34.574Z,23.00
2018-08-04T02:17:03.358Z,23.00
2018-08-04T02:19:32.160Z,23.00
2018-08-04T02:22:01.045Z,23.10
2018-08-04T02:24:29.838Z,23.20
2018-08-04T02:26:58.631Z,23.40
2018-08-04T02:29:27.428Z,23.40
2018-08-04T02:31:56.400Z,23.50
2018-08-04T02:34:25.239Z,23.60
2018-08-04T02:36:54.051Z,23.70
2018-08-04T02:39:22.873Z,23.70
2018-08-04T02:41:51.672Z,23.70
2018-08-04T02:44:20.487Z,23.70
2018-08-04T02:46:49.282Z,23.60
2018-08-04T02:49:18.095Z,23.60
2018-08-04T02:51:46.888Z,23.50
2018-08-04T02:54:15.687Z,23.40
2018-08-04T02:56:44.485Z,23.40
2018-08-04T02:59:13.289Z,23.30
2018-08-04T03:01:42.077Z,23.20
2018-08-04T03:04:10.876Z,23.10
2018-08-04T03:06:39.669Z,23.00
2018-08-04T03:09:09.643Z,23.00
2018-08-04T03:11:38.437Z,23.00
2018-08-04T03:14:07.236Z,23.00
2018-08-04T03:16:36.033Z,22.90
2018-08-04T03:19:04.996Z,22.90
2018-08-04T03:21:33.820Z,22.90
2018-08-04T03:24:02.629Z,22.80
2018-08-04T03:26:31.411Z,22.70
2018-08-04T03:29:00.204Z,22.70
2018-08-04T03:31:29.001Z,22.70
2018-08-04T03:33:57.807Z,22.60
2018-08-04T03:36:26.652Z,22.60
2018-08-04T03:38:55.440Z,22.50
2018-08-04T03:41:24.251Z,22.40
2018-08-04T03:43:53.043Z,22.40
2018-08-04T03:46:21.844Z,22.30
2018-08-04T03:48:50.639Z,22.30
2018-08-04T03:51:19.445Z,22.30
2018-08-04T03:53:48.240Z,22.30
2018-08-04T03:56:17.046Z,22.30
2018-08-04T03:58:45.831Z,22.30
2018-08-04T04:01:14.639Z,22.30
2018-08-04T04:03:43.432Z,22.30
2018-08-04T04:06:12.241Z,22.40
2018-08-04T04:08:41.045Z,22.30
2018-08-04T04:11:09.823Z,22.40
2018-08-04T04:13:38.619Z,22.50
2018-08-04T04:16:07.431Z,22.60
2018-08-04T04:18:36.232Z,22.70
2018-08-04T04:21:05.023Z,22.80
2018-08-04T04:23:33.826Z,22.90
2018-08-04T04:26:02.628Z,23.00
2018-08-04T04:28:31.419Z,23.10
2018-08-04T04:31:00.243Z,23.10
2018-08-04T04:33:29.032Z,23.10
2018-08-04T04:35:57.835Z,23.10
2018-08-04T04:38:26.957Z,23.10
2018-08-04T04:40:55.731Z,23.10
2018-08-04T04:43:24.528Z,23.10
2018-08-04T04:45:53.331Z,23.20
2018-08-04T04:48:22.146Z,23.20
2018-08-04T04:50:50.939Z,23.20
2018-08-04T04:53:19.735Z,23.40
2018-08-04T04:55:48.540Z,23.60
2018-08-04T04:58:17.344Z,23.90
2018-08-04T05:00:46.143Z,24.20
2018-08-04T05:03:14.936Z,24.50
2018-08-04T05:05:43.731Z,24.90
2018-08-04T05:08:12.536Z,25.30
2018-08-04T05:10:41.339Z,25.60
2018-08-04T05:13:10.137Z,25.90
2018-08-04T05:15:38.923Z,26.10
2018-08-04T05:18:07.732Z,26.40
2018-08-04T05:20:36.524Z,26.70
2018-08-04T05:23:05.423Z,26.90
2018-08-04T05:25:34.234Z,27.20
2018-08-04T05:28:03.028Z,27.50
2018-08-04T05:30:31.823Z,27.80
2018-08-04T05:33:00.619Z,28.10
2018-08-04T05:35:29.421Z,28.50
2018-08-04T05:37:58.272Z,28.70
2018-08-04T05:40:27.060Z,28.90
2018-08-04T05:42:55.853Z,29.10
2018-08-04T05:45:24.711Z,29.30
2018-08-04T05:47:53.520Z,29.40
2018-08-04T05:50:22.339Z,29.70
2018-08-04T05:52:51.140Z,30.10
2018-08-04T05:55:19.941Z,30.50
2018-08-04T05:57:48.777Z,30.80
2018-08-04T06:00:17.577Z,31.10
2018-08-04T06:02:46.366Z,31.90
2018-08-04T06:05:15.138Z,32.70
2018-08-04T06:07:43.939Z,33.60
2018-08-04T06:10:12.736Z,34.10
2018-08-04T06:12:41.522Z,35.00
2018-08-04T06:15:10.317Z,35.60
2018-08-04T06:17:39.116Z,35.80
2018-08-04T06:20:07.907Z,36.50
2018-08-04T06:22:36.716Z,36.90
2018-08-04T06:25:05.523Z,37.30
2018-08-04T06:27:34.328Z,37.50
2018-08-04T06:30:03.158Z,37.10
2018-08-04T06:32:31.955Z,37.30
2018-08-04T06:35:00.747Z,37.60
2018-08-04T06:37:29.575Z,37.80
2018-08-04T06:39:58.374Z,37.70
2018-08-04T06:42:27.174Z,37.90
2018-08-04T06:44:55.963Z,37.90
2018-08-04T06:47:24.758Z,37.80
2018-08-04T06:49:53.555Z,37.60
2018-08-04T06:52:22.363Z,37.30
2018-08-04T06:54:51.181Z,36.90
2018-08-04T06:57:20.004Z,36.50
2018-08-04T06:59:48.815Z,36.20
2018-08-04T07:02:17.621Z,35.60
2018-08-04T07:04:46.448Z,35.10
2018-08-04T07:07:15.247Z,34.60
2018-08-04T07:09:44.065Z,34.00
2018-08-04T07:12:12.870Z,33.80
2018-08-04T07:14:41.692Z,33.80
2018-08-04T07:17:10.496Z,34.00
2018-08-04T07:19:39.302Z,34.20
2018-08-04T07:22:08.099Z,34.10
2018-08-04T07:24:36.912Z,34.20
2018-08-04T07:27:05.712Z,34.20
2018-08-04T07:29:34.515Z,34.30
2018-08-04T07:32:03.333Z,34.60
2018-08-04T07:34:32.147Z,34.90
2018-08-04T07:37:00.961Z,35.10
2018-08-04T07:39:29.771Z,35.20
2018-08-04T07:41:58.588Z,35.30
2018-08-04T07:44:27.396Z,35.40
2018-08-04T07:46:56.198Z,35.40
2018-08-04T07:49:25.003Z,35.20
2018-08-04T07:51:53.811Z,34.90
2018-08-04T07:54:22.616Z,34.70
2018-08-04T07:56:51.423Z,35.10
2018-08-04T07:59:20.245Z,35.40
2018-08-04T08:01:49.552Z,35.50
2018-08-04T08:04:18.612Z,35.80
2018-08-04T08:06:47.420Z,35.60
2018-08-04T08:09:16.203Z,35.70
2018-08-04T08:11:45.180Z,36.00
2018-08-04T08:14:14.059Z,36.30
2018-08-04T08:16:43.094Z,36.40
2018-08-04T08:19:11.891Z,36.60
2018-08-04T08:21:40.695Z,37.00
2018-08-04T08:24:09.479Z,37.10
2018-08-04T08:26:38.275Z,37.10
2018-08-04T08:29:07.084Z,36.80
2018-08-04T08:31:35.935Z,36.30
2018-08-04T08:34:04.684Z,36.50
2018-08-04T08:36:33.478Z,36.30
2018-08-04T08:39:02.318Z,36.30
2018-08-04T08:41:31.111Z,36.40
2018-08-04T08:44:00.243Z,36.60
2018-08-04T08:46:29.043Z,37.10
2018-08-04T08:48:57.830Z,37.30
2018-08-04T08:51:26.638Z,36.50
2018-08-04T08:53:55.544Z,35.90
2018-08-04T08:56:24.316Z,35.30
2018-08-04T08:58:53.115Z,34.90
2018-08-04T09:01:22.100Z,34.50
2018-08-04T09:03:50.870Z,34.10
2018-08-04T09:06:19.676Z,33.80
2018-08-04T09:08:48.454Z,33.60
2018-08-04T09:11:17.263Z,33.60
2018-08-04T09:13:46.154Z,33.80
2018-08-04T09:16:14.992Z,33.70
2018-08-04T09:18:43.787Z,33.60
2018-08-04T09:21:12.691Z,33.70
2018-08-04T09:23:41.490Z,34.00
2018-08-04T09:26:10.304Z,34.20
2018-08-04T09:28:39.156Z,34.40
2018-08-04T09:31:07.948Z,34.50
2018-08-04T09:33:36.742Z,34.50
2018-08-04T09:36:05.974Z,34.50
2018-08-04T09:38:34.780Z,34.40
2018-08-04T09:41:03.575Z,34.30
2018-08-04T09:43:32.371Z,34.10
2018-08-04T09:46:01.163Z,34.00
2018-08-04T09:48:29.973Z,33.60
2018-08-04T09:50:58.788Z,33.30
2018-08-04T09:53:27.613Z,33.00
2018-08-04T09:55:56.422Z,33.00
2018-08-04T09:58:25.233Z,32.90
2018-08-04T10:00:59.497Z,32.90
2018-08-04T10:03:28.305Z,32.90
2018-08-04T10:05:57.130Z,33.10
2018-08-04T10:08:26.024Z,33.50
2018-08-04T10:10:55.541Z,33.70
2018-08-04T10:13:24.360Z,33.60
2018-08-04T10:15:53.214Z,33.50
2018-08-04T10:18:22.023Z,33.40
2018-08-04T10:20:50.832Z,33.20
2018-08-04T10:23:19.651Z,32.80
2018-08-04T10:25:48.551Z,32.50
2018-08-04T10:28:17.361Z,32.30
2018-08-04T10:30:46.219Z,32.30
2018-08-04T10:33:15.141Z,32.30
2018-08-04T10:35:44.030Z,32.40
2018-08-04T10:38:12.825Z,32.60
2018-08-04T10:40:41.699Z,32.80
2018-08-04T10:43:10.744Z,32.80
2018-08-04T10:45:39.607Z,33.00
2018-08-04T10:48:08.423Z,33.30
2018-08-04T10:50:37.464Z,33.60
2018-08-04T10:53:06.358Z,33.70
2018-08-04T10:55:35.261Z,33.70
2018-08-04T10:58:04.459Z,33.40
2018-08-04T11:00:33.327Z,33.10
2018-08-04T11:03:02.131Z,32.90
2018-08-04T11:05:30.938Z,32.80
2018-08-04T11:07:59.748Z,32.90
2018-08-04T11:10:28.570Z,33.10
2018-08-04T11:12:57.379Z,33.20
2018-08-04T11:15:26.200Z,33.30
2018-08-04T11:17:55.003Z,33.30
2018-08-04T11:20:23.823Z,33.10
2018-08-04T11:22:52.633Z,32.80
2018-08-04T11:25:21.442Z,32.70
2018-08-04T11:27:50.270Z,32.50
2018-08-04T11:30:19.064Z,32.40
2018-08-04T11:32:47.903Z,32.40
2018-08-04T11:35:16.711Z,32.30
2018-08-04T11:37:45.550Z,32.10
2018-08-04T11:40:14.331Z,32.00
2018-08-04T11:42:43.149Z,31.80
2018-08-04T11:45:11.959Z,31.80
2018-08-04T11:47:40.752Z,31.70
2018-08-04T11:50:09.603Z,31.70
2018-08-04T11:52:38.379Z,31.60
2018-08-04T11:55:07.181Z,31.60
2018-08-04T11:57:35.983Z,31.60
2018-08-04T12:00:05.157Z,31.60
2018-08-04T12:02:33.965Z,31.60
2018-08-04T12:05:02.816Z,31.60
2018-08-04T12:07:31.655Z,31.60
2018-08-04T12:10:00.447Z,31.70
2018-08-04T12:12:29.235Z,31.80
2018-08-04T12:14:58.033Z,31.80
2018-08-04T12:17:26.822Z,31.80
2018-08-04T12:19:55.612Z,31.80
2018-08-04T12:22:24.619Z,31.70
2018-08-04T12:24:53.441Z,31.70
2018-08-04T12:27:22.239Z,31.80
2018-08-04T12:29:51.038Z,31.90
2018-08-04T12:32:19.875Z,32.00
2018-08-04T12:34:48.780Z,32.00
2018-08-04T12:37:17.575Z,32.00
2018-08-04T12:39:46.363Z,32.00
2018-08-04T12:42:15.173Z,32.00
2018-08-04T12:44:43.964Z,32.00
2018-08-04T12:47:12.775Z,32.00
2018-08-04T12:49:41.584Z,32.00
2018-08-04T12:52:10.409Z,31.80
2018-08-04T12:54:39.219Z,31.80
2018-08-04T12:57:08.087Z,31.80
2018-08-04T12:59:36.903Z,31.80
2018-08-04T13:02:05.715Z,31.80
2018-08-04T13:04:34.539Z,31.80
2018-08-04T13:07:03.360Z,31.70
2018-08-04T13:09:32.181Z,31.70
2018-08-04T13:12:01.041Z,31.60
2018-08-04T13:14:29.796Z,31.50
2018-08-04T13:16:58.603Z,31.40
2018-08-04T13:19:27.487Z,31.30
2018-08-04T13:21:56.339Z,31.30
2018-08-04T13:24:25.144Z,31.40
2018-08-04T13:26:53.964Z,31.70
2018-08-04T13:29:22.794Z,31.80
2018-08-04T13:31:51.607Z,31.80
2018-08-04T13:34:20.422Z,31.80
2018-08-04T13:36:49.228Z,31.70
2018-08-04T13:39:18.036Z,31.60
2018-08-04T13:41:46.858Z,31.50
2018-08-04T13:44:15.654Z,31.60
2018-08-04T13:46:44.501Z,31.50
2018-08-04T13:49:13.290Z,31.70
2018-08-04T13:51:42.108Z,31.70
2018-08-04T13:54:10.924Z,31.70
2018-08-04T13:56:39.788Z,31.70
2018-08-04T13:59:08.725Z,31.70
2018-08-04T14:01:37.526Z,31.70
2018-08-04T14:04:06.364Z,31.70
2018-08-04T14:06:35.173Z,31.60
2018-08-04T14:09:05.764Z,31.60
2018-08-04T14:11:34.567Z,31.60
2018-08-04T14:14:03.423Z,31.50
2018-08-04T14:16:32.222Z,31.60
2018-08-04T14:19:01.031Z,31.70
2018-08-04T14:21:30.627Z,31.80
2018-08-04T14:23:59.541Z,31.80
2018-08-04T14:26:28.342Z,31.70
2018-08-04T14:28:57.155Z,31.70
2018-08-04T14:31:26.063Z,31.70
2018-08-04T14:33:54.871Z,31.70
2018-08-04T14:36:23.688Z,31.70
2018-08-04T14:38:52.492Z,31.70
2018-08-04T14:41:21.302Z,31.60
2018-08-04T14:43:50.403Z,31.50
2018-08-04T14:46:19.210Z,31.60
2018-08-04T14:48:48.052Z,31.80
2018-08-04T14:51:16.838Z,31.70
2018-08-04T14:53:45.640Z,31.80
2018-08-04T14:56:14.441Z,31.80
2018-08-04T14:58:43.656Z,31.70
2018-08-04T15:01:12.452Z,31.60
2018-08-04T15:03:41.303Z,31.40
2018-08-04T15:06:10.110Z,31.20
2018-08-04T15:08:38.920Z,31.30
2018-08-04T15:11:07.712Z,31.40
2018-08-04T15:13:36.512Z,31.50
2018-08-04T15:16:05.332Z,31.40
2018-08-04T15:18:34.152Z,31.40
2018-08-04T15:21:02.947Z,31.40
2018-08-04T15:23:31.840Z,31.40
2018-08-04T15:26:00.647Z,31.40
2018-08-04T15:28:30.060Z,31.30
2018-08-04T15:30:58.871Z,31.40
2018-08-04T15:33:27.688Z,31.40
2018-08-04T15:35:56.500Z,31.40
2018-08-04T15:38:25.427Z,31.40
2018-08-04T15:40:54.257Z,31.30
2018-08-04T15:43:23.046Z,31.30
2018-08-04T15:45:51.858Z,31.20
2018-08-04T15:48:20.657Z,31.20
2018-08-04T15:50:49.487Z,31.20
2018-08-04T15:53:18.292Z,31.20
2018-08-04T15:55:47.161Z,31.20
2018-08-04T15:58:15.992Z,31.10
2018-08-04T16:00:44.803Z,31.10
2018-08-04T16:03:13.615Z,31.00
2018-08-04T16:05:42.428Z,31.00
2018-08-04T16:08:11.241Z,31.00
2018-08-04T16:10:40.057Z,30.90
2018-08-04T16:13:08.868Z,30.90
2018-08-04T16:15:37.683Z,30.90
2018-08-04T16:18:06.504Z,30.80
2018-08-04T16:20:35.321Z,30.80
2018-08-04T16:23:04.123Z,30.80
2018-08-04T16:25:32.924Z,30.70
2018-08-04T16:28:01.733Z,30.70
2018-08-04T16:30:30.547Z,30.60
2018-08-04T16:32:59.344Z,30.60
2018-08-04T16:35:28.146Z,30.50
2018-08-04T16:37:56.955Z,30.60
2018-08-04T16:40:25.762Z,30.50
2018-08-04T16:42:54.589Z,30.50
2018-08-04T16:45:23.405Z,30.50
2018-08-04T16:47:52.205Z,30.40
2018-08-04T16:50:21.015Z,30.40
2018-08-04T16:52:50.018Z,30.30
2018-08-04T16:55:18.820Z,30.30
2018-08-04T16:57:47.622Z,30.20
2018-08-04T17:00:16.409Z,30.10
2018-08-04T17:02:45.200Z,30.10
2018-08-04T17:05:13.993Z,30.00
2018-08-04T17:07:42.799Z,30.00
2018-08-04T17:10:11.584Z,30.00
2018-08-04T17:12:40.395Z,30.00
2018-08-04T17:15:09.187Z,29.90
2018-08-04T17:17:37.991Z,29.90
2018-08-04T17:20:06.788Z,29.90
2018-08-04T17:22:35.634Z,29.80
2018-08-04T17:25:04.460Z,29.80
2018-08-04T17:27:33.256Z,29.80
2018-08-04T17:30:02.052Z,29.60
2018-08-04T17:32:31.095Z,29.60
2018-08-04T17:34:59.887Z,29.60
2018-08-04T17:37:28.764Z,29.50
2018-08-04T17:39:57.478Z,29.40
2018-08-04T17:42:26.283Z,29.40
2018-08-04T17:44:55.076Z,29.40
2018-08-04T17:47:23.876Z,29.30
2018-08-04T17:49:52.671Z,29.30
2018-08-04T17:52:21.496Z,29.20
2018-08-04T17:54:50.295Z,29.20
2018-08-04T17:57:19.152Z,29.10
2018-08-04T17:59:47.924Z,29.00
2018-08-04T18:02:16.732Z,28.90
2018-08-04T18:04:45.539Z,28.90
2018-08-04T18:07:14.343Z,28.80
2018-08-04T18:09:43.154Z,28.70
2018-08-04T18:12:11.981Z,28.70
2018-08-04T18:14:40.788Z,28.60
2018-08-04T18:17:09.608Z,28.50
2018-08-04T18:19:38.410Z,28.40
2018-08-04T18:22:07.296Z,28.40
2018-08-04T18:24:36.111Z,28.30
2018-08-04T18:27:04.918Z,28.20
2018-08-04T18:29:33.753Z,28.10
2018-08-04T18:32:02.539Z,28.00
2018-08-04T18:34:31.356Z,27.90
2018-08-04T18:37:00.169Z,27.80
2018-08-04T18:39:28.969Z,27.70
2018-08-04T18:41:57.776Z,27.60
2018-08-04T18:44:26.596Z,27.60
2018-08-04T18:46:55.404Z,27.50
2018-08-04T18:49:24.216Z,27.40
2018-08-04T18:51:53.004Z,27.40
2018-08-04T18:54:21.806Z,27.30
2018-08-04T18:56:50.604Z,27.20
2018-08-04T18:59:19.403Z,27.10
2018-08-04T19:01:48.230Z,27.00
2018-08-04T19:04:17.027Z,26.90
2018-08-04T19:06:45.819Z,26.80
2018-08-04T19:09:14.641Z,26.70
2018-08-04T19:11:43.416Z,26.70
2018-08-04T19:14:12.216Z,26.60
2018-08-04T19:16:41.006Z,26.60
2018-08-04T19:19:09.799Z,26.50
2018-08-04T19:21:38.591Z,26.50
2018-08-04T19:24:07.391Z,26.40
2018-08-04T19:26:36.178Z,26.30
2018-08-04T19:29:04.984Z,26.30
2018-08-04T19:31:33.771Z,26.20
2018-08-04T19:34:02.580Z,26.20
2018-08-04T19:36:31.516Z,26.20
2018-08-04T19:39:00.317Z,26.20
2018-08-04T19:41:29.103Z,26.30
2018-08-04T19:43:57.961Z,26.30
2018-08-04T19:46:26.699Z,26.30
2018-08-04T19:48:55.492Z,26.20
2018-08-04T19:51:24.299Z,26.20
2018-08-04T19:53:53.091Z,26.30
2018-08-04T19:56:21.904Z,26.20
2018-08-04T19:58:51.007Z,26.10
2018-08-04T20:01:19.810Z,26.10
2018-08-04T20:03:48.687Z,26.10
2018-08-04T20:06:17.488Z,26.00
2018-08-04T20:08:46.299Z,26.00
2018-08-04T20:11:15.096Z,26.00
2018-08-04T20:13:43.896Z,25.90
2018-08-04T20:16:12.691Z,25.90
2018-08-04T20:18:41.480Z,25.80
2018-08-04T20:21:10.280Z,25.70
2018-08-04T20:23:39.075Z,25.70
2018-08-04T20:26:07.876Z,25.70
2018-08-04T20:28:36.658Z,25.70
2018-08-04T20:31:05.468Z,25.60
2018-08-04T20:33:35.085Z,25.60
2018-08-04T20:36:03.896Z,25.50
2018-08-04T20:38:32.682Z,25.50
2018-08-04T20:41:01.479Z,25.50
2018-08-04T20:43:30.284Z,25.40
2018-08-04T20:45:59.083Z,25.40
2018-08-04T20:48:27.880Z,25.30
2018-08-04T20:50:56.676Z,25.30
2018-08-04T20:53:25.473Z,25.20
2018-08-04T20:55:54.272Z,25.20
2018-08-04T20:58:23.108Z,25.20
2018-08-04T21:01:03.207Z,25.20
2018-08-04T21:03:32.000Z,25.20
2018-08-04T21:06:00.801Z,25.20
2018-08-04T21:08:30.480Z,25.20
2018-08-04T21:10:59.316Z,25.10
2018-08-04T21:13:28.116Z,25.10
2018-08-04T21:15:56.931Z,25.10
2018-08-04T21:18:25.722Z,25.10
2018-08-04T21:20:54.517Z,25.10
2018-08-04T21:23:23.360Z,25.10
2018-08-04T21:25:52.156Z,25.00
2018-08-04T21:28:20.951Z,25.00
2018-08-04T21:30:49.752Z,24.90
2018-08-04T21:33:18.552Z,24.90
2018-08-04T21:35:47.397Z,24.90
2018-08-04T21:38:16.148Z,24.90
2018-08-04T21:40:44.931Z,24.80
2018-08-04T21:43:13.739Z,24.80
2018-08-04T21:45:42.578Z,24.80
2018-08-04T21:48:11.370Z,24.70
2018-08-04T21:50:40.297Z,24.70
2018-08-04T21:53:09.098Z,24.70
2018-08-04T21:55:37.904Z,24.60
2018-08-04T21:58:06.801Z,24.60
2018-08-04T22:00:39.933Z,24.50
2018-08-04T22:03:08.712Z,24.40
2018-08-04T22:05:37.460Z,24.40
2018-08-04T22:08:17.568Z,24.30
2018-08-04T22:10:46.404Z,24.20
2018-08-04T22:13:15.205Z,24.20
2018-08-04T22:15:43.999Z,24.10
2018-08-04T22:18:12.791Z,24.00
2018-08-04T22:20:41.584Z,24.10
2018-08-04T22:23:10.385Z,24.10
2018-08-04T22:25:39.182Z,24.00
2018-08-04T22:28:07.979Z,24.00
2018-08-04T22:30:36.780Z,24.00
2018-08-04T22:33:06.025Z,24.00
2018-08-04T22:35:34.811Z,24.00
2018-08-04T22:38:03.637Z,23.90
2018-08-04T22:40:32.427Z,23.90
2018-08-04T22:43:01.232Z,23.80
2018-08-04T22:45:57.169Z,23.80
2018-08-04T22:48:26.031Z,23.80
2018-08-04T22:50:54.863Z,23.70
2018-08-04T22:53:23.672Z,23.70
2018-08-04T22:55:52.457Z,23.70
2018-08-04T22:58:21.262Z,23.70
2018-08-04T23:00:50.063Z,23.70
2018-08-04T23:03:18.885Z,23.70
2018-08-04T23:05:47.680Z,23.60
2018-08-04T23:08:16.478Z,23.50
2018-08-04T23:10:45.433Z,23.50
2018-08-04T23:13:14.763Z,23.50
2018-08-04T23:15:43.571Z,23.50
2018-08-04T23:18:12.418Z,23.50
2018-08-04T23:20:41.386Z,23.50
2018-08-04T23:23:10.960Z,23.50
2018-08-04T23:25:39.763Z,23.50
2018-08-04T23:28:08.832Z,23.60
2018-08-04T23:30:37.632Z,23.50
2018-08-04T23:33:06.491Z,23.60
2018-08-04T23:35:35.287Z,23.60
2018-08-04T23:38:04.079Z,23.60
2018-08-04T23:40:32.884Z,23.60
2018-08-04T23:43:01.732Z,23.50
2018-08-04T23:45:30.531Z,23.50
2018-08-04T23:47:59.320Z,23.40
2018-08-04T23:50:28.140Z,23.30
2018-08-04T23:52:56.947Z,23.30
2018-08-04T23:55:25.741Z,23.20
2018-08-04T23:57:54.541Z,23.10
